createdAt,value
2022-07-26T00:01:28.048Z,1.10
2022-07-26T00:04:02.819Z,1.20
2022-07-26T00:06:32.047Z,1.47
2022-07-26T00:09:01.197Z,1.50
2022-07-26T00:11:33.591Z,1.10
2022-07-26T00:14:03.929Z,1.10
2022-07-26T00:16:33.427Z,0.93
2022-07-26T00:19:04.520Z,1.07
2022-07-26T00:21:34.561Z,0.90
2022-07-26T00:24:03.601Z,1.00
2022-07-26T00:26:33.315Z,1.10
2022-07-26T00:29:04.258Z,1.30
2022-07-26T00:31:33.644Z,1.13
2022-07-26T00:34:04.126Z,1.03
2022-07-26T00:36:33.247Z,1.00
2022-07-26T00:39:03.238Z,1.30
2022-07-26T00:41:32.410Z,0.97
2022-07-26T00:44:01.792Z,1.13
2022-07-26T00:46:30.901Z,0.90
2022-07-26T00:49:00.079Z,0.80
2022-07-26T00:51:30.922Z,1.20
2022-07-26T00:54:00.009Z,2.17
2022-07-26T00:56:29.182Z,0.80
2022-07-26T00:58:58.362Z,1.23
2022-07-26T01:01:27.670Z,1.20
2022-07-26T01:03:56.828Z,1.13
2022-07-26T01:06:27.466Z,1.10
2022-07-26T01:08:58.041Z,1.07
2022-07-26T01:11:27.128Z,1.23
2022-07-26T01:13:56.190Z,1.30
2022-07-26T01:16:25.935Z,1.20
2022-07-26T01:18:55.170Z,1.30
2022-07-26T01:21:24.681Z,1.40
2022-07-26T01:23:55.012Z,1.17
2022-07-26T01:26:25.723Z,1.30
2022-07-26T01:28:54.987Z,1.30
2022-07-26T01:31:24.324Z,1.20
2022-07-26T01:33:53.760Z,1.17
2022-07-26T01:36:23.078Z,1.50
2022-07-26T01:38:52.357Z,1.13
2022-07-26T01:41:38.078Z,1.20
2022-07-26T01:44:08.780Z,1.63
2022-07-26T01:46:37.971Z,1.20
2022-07-26T01:49:08.464Z,1.83
2022-07-26T01:51:37.557Z,1.03
2022-07-26T01:54:07.074Z,1.33
2022-07-26T01:56:37.599Z,1.50
2022-07-26T01:59:06.697Z,1.10
2022-07-26T02:01:39.617Z,1.40
2022-07-26T02:04:29.431Z,1.80
2022-07-26T02:06:59.052Z,1.27
2022-07-26T02:09:31.533Z,1.40
2022-07-26T02:12:11.191Z,1.07
2022-07-26T02:14:40.252Z,1.20
2022-07-26T02:17:09.551Z,1.20
2022-07-26T02:19:38.765Z,1.23
2022-07-26T02:22:07.721Z,1.40
2022-07-26T02:24:37.255Z,1.80
2022-07-26T02:27:06.401Z,1.20
2022-07-26T02:29:36.868Z,1.70
2022-07-26T02:32:07.036Z,1.43
2022-07-26T02:34:35.976Z,1.27
2022-07-26T02:37:05.168Z,1.40
2022-07-26T02:39:34.145Z,1.50
2022-07-26T02:42:04.364Z,1.77
2022-07-26T02:44:34.818Z,1.97
2022-07-26T02:47:06.410Z,1.40
2022-07-26T02:49:35.419Z,1.40
2022-07-26T02:52:04.868Z,1.60
2022-07-26T02:54:33.914Z,1.37
2022-07-26T02:57:02.923Z,1.17
2022-07-26T02:59:32.051Z,1.70
2022-07-26T03:02:01.235Z,1.40
2022-07-26T03:04:31.716Z,1.80
2022-07-26T03:07:00.710Z,1.47
2022-07-26T03:09:29.719Z,1.67
2022-07-26T03:11:58.664Z,1.47
2022-07-26T03:14:27.644Z,1.37
2022-07-26T03:16:56.657Z,1.67
2022-07-26T03:19:25.666Z,1.23
2022-07-26T03:21:56.100Z,1.20
2022-07-26T03:24:25.097Z,1.33
2022-07-26T03:26:54.112Z,1.20
2022-07-26T03:29:23.069Z,1.40
2022-07-26T03:31:52.446Z,1.60
2022-07-26T03:34:21.555Z,1.30
2022-07-26T03:36:50.663Z,1.50
2022-07-26T03:39:21.150Z,1.60
2022-07-26T03:41:50.171Z,1.63
2022-07-26T03:44:19.217Z,1.40
2022-07-26T03:46:48.382Z,1.33
2022-07-26T03:49:17.625Z,2.53
2022-07-26T03:51:46.824Z,1.33
2022-07-26T03:54:15.936Z,2.30
2022-07-26T03:56:45.500Z,1.67
2022-07-26T03:59:14.548Z,1.40
2022-07-26T04:01:43.872Z,1.73
2022-07-26T04:04:14.595Z,1.50
2022-07-26T04:06:44.034Z,2.10
2022-07-26T04:09:14.005Z,1.87
2022-07-26T04:11:43.615Z,1.70
2022-07-26T04:14:13.968Z,1.80
2022-07-26T04:16:43.796Z,2.30
2022-07-26T04:19:13.048Z,1.83
2022-07-26T04:21:42.060Z,1.83
2022-07-26T04:24:11.422Z,2.03
2022-07-26T04:26:40.588Z,2.57
2022-07-26T04:29:09.606Z,1.80
2022-07-26T04:31:42.367Z,2.20
2022-07-26T04:34:11.942Z,2.17
2022-07-26T04:36:41.231Z,2.57
2022-07-26T04:39:11.183Z,1.77
2022-07-26T04:41:40.198Z,2.80
2022-07-26T04:44:09.701Z,2.00
2022-07-26T04:46:39.242Z,2.33
2022-07-26T04:49:15.626Z,2.17
2022-07-26T04:51:44.753Z,2.30
2022-07-26T04:54:15.650Z,2.20
2022-07-26T04:56:44.831Z,2.23
2022-07-26T04:59:17.242Z,2.20
2022-07-26T05:01:53.666Z,1.80
2022-07-26T05:04:24.204Z,2.10
2022-07-26T05:06:53.245Z,1.97
2022-07-26T05:09:22.407Z,2.30
2022-07-26T05:11:51.497Z,2.70
2022-07-26T05:14:20.582Z,2.07
2022-07-26T05:16:51.310Z,2.30
2022-07-26T05:19:20.616Z,2.20
2022-07-26T05:21:51.594Z,2.27
2022-07-26T05:24:20.894Z,2.20
2022-07-26T05:26:50.032Z,2.30
2022-07-26T05:29:19.067Z,1.93
2022-07-26T05:31:48.134Z,1.90
2022-07-26T05:34:17.304Z,2.03
2022-07-26T05:36:46.307Z,2.00
2022-07-26T05:39:16.710Z,2.20
2022-07-26T05:41:45.750Z,2.23
2022-07-26T05:44:15.295Z,3.10
2022-07-26T05:46:44.363Z,2.63
2022-07-26T05:49:13.491Z,2.17
2022-07-26T05:51:42.655Z,2.20
2022-07-26T05:54:11.928Z,2.20
2022-07-26T05:56:42.405Z,2.27
2022-07-26T05:59:11.624Z,2.30
2022-07-26T06:01:40.641Z,2.20
2022-07-26T06:04:10.694Z,2.80
2022-07-26T06:06:39.970Z,2.23
2022-07-26T06:09:08.994Z,2.20
2022-07-26T06:11:38.083Z,2.37
2022-07-26T06:14:09.087Z,2.13
2022-07-26T06:16:38.545Z,2.20
2022-07-26T06:19:07.629Z,1.90
2022-07-26T06:21:36.633Z,2.23
2022-07-26T06:24:06.777Z,2.70
2022-07-26T06:26:36.045Z,2.53
2022-07-26T06:29:05.604Z,2.80
2022-07-26T06:31:36.355Z,2.73
2022-07-26T06:34:05.830Z,2.90
2022-07-26T06:36:35.333Z,2.37
2022-07-26T06:39:04.616Z,2.60
2022-07-26T06:41:33.707Z,2.90
2022-07-26T06:44:02.785Z,3.20
2022-07-26T06:46:32.100Z,2.60
2022-07-26T06:49:03.010Z,3.17
2022-07-26T06:51:32.166Z,3.13
2022-07-26T06:54:01.549Z,3.30
2022-07-26T06:56:32.468Z,4.33
2022-07-26T06:59:05.069Z,4.37
2022-07-26T07:01:59.644Z,4.10
2022-07-26T07:04:27.383Z,4.17
2022-07-26T07:06:57.455Z,4.63
2022-07-26T07:09:27.194Z,5.20
2022-07-26T07:12:01.163Z,4.73
2022-07-26T07:14:34.965Z,5.10
2022-07-26T07:17:12.997Z,5.77
2022-07-26T07:19:44.640Z,6.87
2022-07-26T07:22:13.761Z,6.33
2022-07-26T07:24:44.269Z,6.00
2022-07-26T07:27:15.896Z,7.50
2022-07-26T07:29:45.061Z,7.20
2022-07-26T07:32:18.289Z,6.53
2022-07-26T07:34:50.485Z,6.17
2022-07-26T07:37:21.400Z,6.00
2022-07-26T07:39:51.384Z,7.77
2022-07-26T07:42:21.127Z,8.60
2022-07-26T07:44:50.224Z,7.30
2022-07-26T07:47:19.460Z,7.00
2022-07-26T07:49:49.996Z,7.20
2022-07-26T07:52:19.112Z,7.50
2022-07-26T07:54:48.270Z,7.03
2022-07-26T07:57:17.368Z,6.33
2022-07-26T07:59:46.555Z,6.80
2022-07-26T08:02:15.929Z,6.97
2022-07-26T08:04:45.101Z,7.20
2022-07-26T08:07:15.573Z,7.40
2022-07-26T08:09:44.823Z,6.80
2022-07-26T08:12:13.891Z,7.80
2022-07-26T08:14:43.763Z,7.53
2022-07-26T08:17:12.882Z,7.17
2022-07-26T08:19:42.584Z,6.20
2022-07-26T08:22:12.756Z,5.80
2022-07-26T08:24:45.716Z,5.30
2022-07-26T08:27:15.355Z,4.57
2022-07-26T08:29:44.387Z,4.13
2022-07-26T08:32:13.498Z,4.73
2022-07-26T08:34:42.775Z,5.07
2022-07-26T08:37:17.487Z,4.43
2022-07-26T08:39:49.011Z,5.10
2022-07-26T08:42:22.733Z,5.40
2022-07-26T08:44:54.058Z,4.67
2022-07-26T08:47:36.281Z,5.10
2022-07-26T08:50:10.162Z,4.90
2022-07-26T08:52:41.150Z,5.50
2022-07-26T08:55:12.200Z,5.13
2022-07-26T08:57:41.409Z,6.47
2022-07-26T09:00:19.092Z,6.90
2022-07-26T09:02:48.726Z,5.93
2022-07-26T09:05:20.231Z,6.07
2022-07-26T09:07:49.337Z,5.73
2022-07-26T09:10:20.026Z,5.20
2022-07-26T09:12:54.596Z,6.30
2022-07-26T09:15:26.671Z,6.10
2022-07-26T09:17:58.308Z,5.77
2022-07-26T22:17:01.659Z,1.60
2022-07-26T22:19:55.450Z,1.10
2022-07-26T22:22:41.085Z,1.10
2022-07-26T22:25:45.900Z,1.10
2022-07-26T22:28:46.142Z,1.43
2022-07-26T22:38:51.865Z,1.00
2022-07-26T22:45:16.863Z,1.43
2022-07-26T22:47:56.301Z,1.10
2022-07-26T22:58:02.963Z,0.83
2022-07-26T23:00:43.394Z,1.00
2022-07-26T23:03:29.261Z,0.80
2022-07-26T23:06:49.435Z,0.90
2022-07-26T23:09:39.500Z,0.90
2022-07-26T23:16:32.235Z,1.10
2022-07-26T23:23:17.896Z,1.20
2022-07-26T23:26:17.796Z,0.90
2022-07-26T23:29:09.041Z,0.97
2022-07-26T23:32:05.979Z,0.80
2022-07-26T23:34:58.267Z,0.80
2022-07-26T23:41:03.584Z,0.80
2022-07-26T23:43:56.766Z,0.83
